sensor_id;sensor_type;location;lat;lon;timestamp;temperature;humidity
70300;HTU21D;57704;51.112;5.878;2022-11-13T00:01:19;10.33;71.73
70300;HTU21D;57704;51.112;5.878;2022-11-13T00:04:04;10.31;71.55
70300;HTU21D;57704;51.112;5.878;2022-11-13T00:06:49;10.24;71.68
70300;HTU21D;57704;51.112;5.878;2022-11-13T00:09:34;10.16;71.77
70300;HTU21D;57704;51.112;5.878;2022-11-13T00:12:18;10.14;71.75
70300;HTU21D;57704;51.112;5.878;2022-11-13T00:15:03;10.09;71.76
70300;HTU21D;57704;51.112;5.878;2022-11-13T00:17:47;10.04;71.74
70300;HTU21D;57704;51.112;5.878;2022-11-13T00:20:32;9.96;71.97
70300;HTU21D;57704;51.112;5.878;2022-11-13T00:23:16;9.91;72.18
70300;HTU21D;57704;51.112;5.878;2022-11-13T00:26:09;9.86;72.19
70300;HTU21D;57704;51.112;5.878;2022-11-13T00:28:57;9.82;72.20
70300;HTU21D;57704;51.112;5.878;2022-11-13T00:31:41;9.76;72.32
70300;HTU21D;57704;51.112;5.878;2022-11-13T00:34:26;9.71;72.58
70300;HTU21D;57704;51.112;5.878;2022-11-13T00:37:10;9.69;72.64
70300;HTU21D;57704;51.112;5.878;2022-11-13T00:39:55;9.67;72.80
70300;HTU21D;57704;51.112;5.878;2022-11-13T00:42:40;9.64;72.83
70300;HTU21D;57704;51.112;5.878;2022-11-13T00:45:24;9.57;72.98
70300;HTU21D;57704;51.112;5.878;2022-11-13T00:48:08;9.50;73.13
70300;HTU21D;57704;51.112;5.878;2022-11-13T00:50:54;9.38;73.59
70300;HTU21D;57704;51.112;5.878;2022-11-13T00:53:38;9.30;73.99
70300;HTU21D;57704;51.112;5.878;2022-11-13T00:56:23;9.23;74.33
70300;HTU21D;57704;51.112;5.878;2022-11-13T00:59:08;9.19;74.71
70300;HTU21D;57704;51.112;5.878;2022-11-13T01:01:52;9.15;74.95
70300;HTU21D;57704;51.112;5.878;2022-11-13T01:04:37;9.11;75.19
70300;HTU21D;57704;51.112;5.878;2022-11-13T01:07:21;9.09;75.24
70300;HTU21D;57704;51.112;5.878;2022-11-13T01:10:06;9.07;75.39
70300;HTU21D;57704;51.112;5.878;2022-11-13T01:12:51;9.04;75.53
70300;HTU21D;57704;51.112;5.878;2022-11-13T01:15:40;9.01;75.62
70300;HTU21D;57704;51.112;5.878;2022-11-13T01:18:25;9.00;75.71
70300;HTU21D;57704;51.112;5.878;2022-11-13T01:21:13;8.94;75.84
70300;HTU21D;57704;51.112;5.878;2022-11-13T01:23:57;8.90;75.94
70300;HTU21D;57704;51.112;5.878;2022-11-13T01:26:42;8.86;76.06
70300;HTU21D;57704;51.112;5.878;2022-11-13T01:29:27;8.82;76.11
70300;HTU21D;57704;51.112;5.878;2022-11-13T01:32:11;8.81;76.20
70300;HTU21D;57704;51.112;5.878;2022-11-13T01:34:56;8.80;76.18
70300;HTU21D;57704;51.112;5.878;2022-11-13T01:37:41;8.85;76.09
70300;HTU21D;57704;51.112;5.878;2022-11-13T01:40:26;8.87;76.05
70300;HTU21D;57704;51.112;5.878;2022-11-13T01:43:28;8.85;76.04
70300;HTU21D;57704;51.112;5.878;2022-11-13T01:46:28;8.85;76.12
70300;HTU21D;57704;51.112;5.878;2022-11-13T01:49:26;8.82;76.11
70300;HTU21D;57704;51.112;5.878;2022-11-13T01:52:32;8.81;76.15
70300;HTU21D;57704;51.112;5.878;2022-11-13T01:55:18;8.79;76.22
70300;HTU21D;57704;51.112;5.878;2022-11-13T01:58:07;8.80;76.24
70300;HTU21D;57704;51.112;5.878;2022-11-13T02:00:53;8.80;76.28
70300;HTU21D;57704;51.112;5.878;2022-11-13T02:03:38;8.87;76.21
70300;HTU21D;57704;51.112;5.878;2022-11-13T02:06:24;8.94;75.95
70300;HTU21D;57704;51.112;5.878;2022-11-13T02:09:13;8.98;75.55
70300;HTU21D;57704;51.112;5.878;2022-11-13T02:11:59;8.97;75.42
70300;HTU21D;57704;51.112;5.878;2022-11-13T02:14:53;8.98;75.40
70300;HTU21D;57704;51.112;5.878;2022-11-13T02:17:47;9.00;75.36
70300;HTU21D;57704;51.112;5.878;2022-11-13T02:20:50;9.02;75.31
70300;HTU21D;57704;51.112;5.878;2022-11-13T02:23:49;9.05;74.96
70300;HTU21D;57704;51.112;5.878;2022-11-13T02:26:39;9.03;74.76
70300;HTU21D;57704;51.112;5.878;2022-11-13T02:29:24;8.98;74.86
70300;HTU21D;57704;51.112;5.878;2022-11-13T02:32:09;8.97;74.73
70300;HTU21D;57704;51.112;5.878;2022-11-13T02:34:54;8.95;74.79
70300;HTU21D;57704;51.112;5.878;2022-11-13T02:37:38;8.92;74.86
70300;HTU21D;57704;51.112;5.878;2022-11-13T02:40:23;8.95;74.80
70300;HTU21D;57704;51.112;5.878;2022-11-13T02:43:08;8.94;74.64
70300;HTU21D;57704;51.112;5.878;2022-11-13T02:45:53;8.94;74.63
70300;HTU21D;57704;51.112;5.878;2022-11-13T02:48:38;8.93;74.70
70300;HTU21D;57704;51.112;5.878;2022-11-13T02:51:23;8.94;74.68
70300;HTU21D;57704;51.112;5.878;2022-11-13T02:54:08;8.91;74.80
70300;HTU21D;57704;51.112;5.878;2022-11-13T02:56:53;8.92;74.87
70300;HTU21D;57704;51.112;5.878;2022-11-13T02:59:37;8.89;74.89
70300;HTU21D;57704;51.112;5.878;2022-11-13T03:02:22;8.87;75.00
70300;HTU21D;57704;51.112;5.878;2022-11-13T03:05:08;8.85;75.02
70300;HTU21D;57704;51.112;5.878;2022-11-13T03:07:53;8.79;75.25
70300;HTU21D;57704;51.112;5.878;2022-11-13T03:10:38;8.76;75.40
70300;HTU21D;57704;51.112;5.878;2022-11-13T03:13:26;8.73;75.57
70300;HTU21D;57704;51.112;5.878;2022-11-13T03:16:16;8.76;75.62
70300;HTU21D;57704;51.112;5.878;2022-11-13T03:19:02;8.76;75.58
70300;HTU21D;57704;51.112;5.878;2022-11-13T03:21:47;8.77;75.54
70300;HTU21D;57704;51.112;5.878;2022-11-13T03:24:32;8.78;75.52
70300;HTU21D;57704;51.112;5.878;2022-11-13T03:27:16;8.76;75.59
70300;HTU21D;57704;51.112;5.878;2022-11-13T03:30:02;8.77;75.54
70300;HTU21D;57704;51.112;5.878;2022-11-13T03:32:46;8.77;75.63
70300;HTU21D;57704;51.112;5.878;2022-11-13T03:35:31;8.77;75.51
70300;HTU21D;57704;51.112;5.878;2022-11-13T03:38:16;8.77;75.42
70300;HTU21D;57704;51.112;5.878;2022-11-13T03:41:00;8.75;75.33
70300;HTU21D;57704;51.112;5.878;2022-11-13T03:43:45;8.71;75.44
70300;HTU21D;57704;51.112;5.878;2022-11-13T03:46:30;8.68;75.50
70300;HTU21D;57704;51.112;5.878;2022-11-13T03:49:15;8.70;75.43
70300;HTU21D;57704;51.112;5.878;2022-11-13T03:52:00;8.66;75.34
70300;HTU21D;57704;51.112;5.878;2022-11-13T03:54:45;8.61;75.41
70300;HTU21D;57704;51.112;5.878;2022-11-13T03:57:30;8.61;75.45
70300;HTU21D;57704;51.112;5.878;2022-11-13T04:00:16;8.57;75.47
70300;HTU21D;57704;51.112;5.878;2022-11-13T04:03:01;8.59;75.33
70300;HTU21D;57704;51.112;5.878;2022-11-13T04:05:48;8.60;75.21
70300;HTU21D;57704;51.112;5.878;2022-11-13T04:08:33;8.57;75.11
70300;HTU21D;57704;51.112;5.878;2022-11-13T04:11:19;8.50;75.15
70300;HTU21D;57704;51.112;5.878;2022-11-13T04:14:04;8.44;75.24
70300;HTU21D;57704;51.112;5.878;2022-11-13T04:16:49;8.43;75.37
70300;HTU21D;57704;51.112;5.878;2022-11-13T04:19:33;8.41;75.40
70300;HTU21D;57704;51.112;5.878;2022-11-13T04:22:18;8.37;75.44
70300;HTU21D;57704;51.112;5.878;2022-11-13T04:25:04;8.35;75.50
70300;HTU21D;57704;51.112;5.878;2022-11-13T04:27:50;8.35;75.60
70300;HTU21D;57704;51.112;5.878;2022-11-13T04:30:35;8.30;75.70
70300;HTU21D;57704;51.112;5.878;2022-11-13T04:33:20;8.28;75.80
70300;HTU21D;57704;51.112;5.878;2022-11-13T04:36:05;8.26;75.88
70300;HTU21D;57704;51.112;5.878;2022-11-13T04:38:50;8.24;75.83
70300;HTU21D;57704;51.112;5.878;2022-11-13T04:41:35;8.26;75.75
70300;HTU21D;57704;51.112;5.878;2022-11-13T04:44:41;8.27;75.54
70300;HTU21D;57704;51.112;5.878;2022-11-13T04:47:26;8.27;75.32
70300;HTU21D;57704;51.112;5.878;2022-11-13T04:50:11;8.24;75.09
70300;HTU21D;57704;51.112;5.878;2022-11-13T04:52:56;8.22;75.02
70300;HTU21D;57704;51.112;5.878;2022-11-13T04:55:40;8.21;74.92
70300;HTU21D;57704;51.112;5.878;2022-11-13T04:58:26;8.23;74.76
70300;HTU21D;57704;51.112;5.878;2022-11-13T05:01:11;8.26;74.48
70300;HTU21D;57704;51.112;5.878;2022-11-13T05:03:56;8.21;74.28
70300;HTU21D;57704;51.112;5.878;2022-11-13T05:06:41;8.17;74.21
70300;HTU21D;57704;51.112;5.878;2022-11-13T05:09:26;8.13;74.08
70300;HTU21D;57704;51.112;5.878;2022-11-13T05:12:11;8.11;74.00
70300;HTU21D;57704;51.112;5.878;2022-11-13T05:14:55;8.08;73.90
70300;HTU21D;57704;51.112;5.878;2022-11-13T05:17:40;8.05;73.76
70300;HTU21D;57704;51.112;5.878;2022-11-13T05:20:25;8.00;73.68
70300;HTU21D;57704;51.112;5.878;2022-11-13T05:23:10;7.98;73.63
70300;HTU21D;57704;51.112;5.878;2022-11-13T05:26:03;7.97;73.70
70300;HTU21D;57704;51.112;5.878;2022-11-13T05:28:48;7.93;73.61
70300;HTU21D;57704;51.112;5.878;2022-11-13T05:31:33;7.90;73.59
70300;HTU21D;57704;51.112;5.878;2022-11-13T05:34:18;7.89;73.57
70300;HTU21D;57704;51.112;5.878;2022-11-13T05:37:02;7.84;73.53
70300;HTU21D;57704;51.112;5.878;2022-11-13T05:39:47;7.83;73.51
70300;HTU21D;57704;51.112;5.878;2022-11-13T05:42:32;7.76;73.45
70300;HTU21D;57704;51.112;5.878;2022-11-13T05:45:16;7.74;73.53
70300;HTU21D;57704;51.112;5.878;2022-11-13T05:48:01;7.69;73.44
70300;HTU21D;57704;51.112;5.878;2022-11-13T05:50:46;7.62;73.72
70300;HTU21D;57704;51.112;5.878;2022-11-13T05:53:31;7.61;73.73
70300;HTU21D;57704;51.112;5.878;2022-11-13T05:56:20;7.57;73.73
70300;HTU21D;57704;51.112;5.878;2022-11-13T05:59:05;7.53;73.67
70300;HTU21D;57704;51.112;5.878;2022-11-13T06:01:50;7.52;73.66
70300;HTU21D;57704;51.112;5.878;2022-11-13T06:04:35;7.52;73.44
70300;HTU21D;57704;51.112;5.878;2022-11-13T06:07:19;7.48;73.28
70300;HTU21D;57704;51.112;5.878;2022-11-13T06:10:05;7.45;73.21
70300;HTU21D;57704;51.112;5.878;2022-11-13T06:12:49;7.42;73.27
70300;HTU21D;57704;51.112;5.878;2022-11-13T06:15:34;7.40;73.34
70300;HTU21D;57704;51.112;5.878;2022-11-13T06:18:21;7.38;73.32
70300;HTU21D;57704;51.112;5.878;2022-11-13T06:21:18;7.34;73.38
70300;HTU21D;57704;51.112;5.878;2022-11-13T06:24:03;7.29;73.36
70300;HTU21D;57704;51.112;5.878;2022-11-13T06:26:48;7.25;73.47
70300;HTU21D;57704;51.112;5.878;2022-11-13T06:29:32;7.27;73.39
70300;HTU21D;57704;51.112;5.878;2022-11-13T06:32:16;7.28;73.22
70300;HTU21D;57704;51.112;5.878;2022-11-13T06:35:00;7.27;73.10
70300;HTU21D;57704;51.112;5.878;2022-11-13T06:37:45;7.27;72.98
70300;HTU21D;57704;51.112;5.878;2022-11-13T06:40:29;7.27;72.80
70300;HTU21D;57704;51.112;5.878;2022-11-13T06:43:14;7.25;72.77
70300;HTU21D;57704;51.112;5.878;2022-11-13T06:46:03;7.23;72.89
70300;HTU21D;57704;51.112;5.878;2022-11-13T06:48:48;7.24;72.96
70300;HTU21D;57704;51.112;5.878;2022-11-13T06:51:33;7.24;72.82
70300;HTU21D;57704;51.112;5.878;2022-11-13T06:54:18;7.24;72.67
70300;HTU21D;57704;51.112;5.878;2022-11-13T06:57:02;7.26;72.67
70300;HTU21D;57704;51.112;5.878;2022-11-13T06:59:47;7.26;72.60
70300;HTU21D;57704;51.112;5.878;2022-11-13T07:02:31;7.27;72.51
70300;HTU21D;57704;51.112;5.878;2022-11-13T07:05:17;7.25;72.60
70300;HTU21D;57704;51.112;5.878;2022-11-13T07:08:01;7.26;72.63
70300;HTU21D;57704;51.112;5.878;2022-11-13T07:10:54;7.28;72.54
70300;HTU21D;57704;51.112;5.878;2022-11-13T07:13:39;7.30;72.50
70300;HTU21D;57704;51.112;5.878;2022-11-13T07:16:24;7.34;72.44
70300;HTU21D;57704;51.112;5.878;2022-11-13T07:19:09;7.39;72.29
70300;HTU21D;57704;51.112;5.878;2022-11-13T07:22:01;7.41;72.29
70300;HTU21D;57704;51.112;5.878;2022-11-13T07:24:46;7.45;72.21
70300;HTU21D;57704;51.112;5.878;2022-11-13T07:27:34;7.49;72.18
70300;HTU21D;57704;51.112;5.878;2022-11-13T07:30:23;7.59;72.58
70300;HTU21D;57704;51.112;5.878;2022-11-13T07:33:08;8.33;76.91
70300;HTU21D;57704;51.112;5.878;2022-11-13T07:35:54;10.04;77.19
70300;HTU21D;57704;51.112;5.878;2022-11-13T07:38:39;11.72;72.82
70300;HTU21D;57704;51.112;5.878;2022-11-13T07:41:23;13.17;68.34
70300;HTU21D;57704;51.112;5.878;2022-11-13T07:44:08;14.36;63.16
70300;HTU21D;57704;51.112;5.878;2022-11-13T07:46:53;15.27;60.37
70300;HTU21D;57704;51.112;5.878;2022-11-13T07:49:37;16.05;57.64
70300;HTU21D;57704;51.112;5.878;2022-11-13T07:52:22;16.71;56.16
70300;HTU21D;57704;51.112;5.878;2022-11-13T07:55:07;17.58;54.66
70300;HTU21D;57704;51.112;5.878;2022-11-13T07:57:56;18.48;52.36
70300;HTU21D;57704;51.112;5.878;2022-11-13T08:00:42;19.26;50.17
70300;HTU21D;57704;51.112;5.878;2022-11-13T08:03:27;19.97;48.15
70300;HTU21D;57704;51.112;5.878;2022-11-13T08:06:11;20.55;46.61
70300;HTU21D;57704;51.112;5.878;2022-11-13T08:08:56;20.99;45.48
70300;HTU21D;57704;51.112;5.878;2022-11-13T08:11:40;21.39;44.54
70300;HTU21D;57704;51.112;5.878;2022-11-13T08:14:25;21.79;43.39
70300;HTU21D;57704;51.112;5.878;2022-11-13T08:17:09;22.22;42.52
70300;HTU21D;57704;51.112;5.878;2022-11-13T08:19:54;22.53;41.58
70300;HTU21D;57704;51.112;5.878;2022-11-13T08:22:39;22.83;40.92
70300;HTU21D;57704;51.112;5.878;2022-11-13T08:25:23;23.16;40.16
70300;HTU21D;57704;51.112;5.878;2022-11-13T08:28:08;23.49;39.72
70300;HTU21D;57704;51.112;5.878;2022-11-13T08:30:52;23.85;38.72
70300;HTU21D;57704;51.112;5.878;2022-11-13T08:33:38;23.99;38.16
70300;HTU21D;57704;51.112;5.878;2022-11-13T08:36:22;24.15;38.16
70300;HTU21D;57704;51.112;5.878;2022-11-13T08:39:08;24.35;37.51
70300;HTU21D;57704;51.112;5.878;2022-11-13T08:41:53;24.51;37.13
70300;HTU21D;57704;51.112;5.878;2022-11-13T08:44:37;24.66;36.30
70300;HTU21D;57704;51.112;5.878;2022-11-13T08:47:22;24.83;35.88
70300;HTU21D;57704;51.112;5.878;2022-11-13T08:50:07;24.85;35.31
70300;HTU21D;57704;51.112;5.878;2022-11-13T08:52:55;24.66;35.22
70300;HTU21D;57704;51.112;5.878;2022-11-13T08:55:40;24.74;35.33
70300;HTU21D;57704;51.112;5.878;2022-11-13T08:58:25;24.69;34.92
70300;HTU21D;57704;51.112;5.878;2022-11-13T09:01:09;24.51;34.41
70300;HTU21D;57704;51.112;5.878;2022-11-13T09:03:53;24.38;34.62
70300;HTU21D;57704;51.112;5.878;2022-11-13T09:06:38;24.32;34.57
70300;HTU21D;57704;51.112;5.878;2022-11-13T09:09:22;24.29;34.77
70300;HTU21D;57704;51.112;5.878;2022-11-13T09:12:07;24.48;33.99
70300;HTU21D;57704;51.112;5.878;2022-11-13T09:14:52;24.28;33.83
70300;HTU21D;57704;51.112;5.878;2022-11-13T09:17:37;24.05;34.03
70300;HTU21D;57704;51.112;5.878;2022-11-13T09:20:22;24.01;34.56
70300;HTU21D;57704;51.112;5.878;2022-11-13T09:23:07;24.18;34.53
70300;HTU21D;57704;51.112;5.878;2022-11-13T09:25:52;24.38;34.12
70300;HTU21D;57704;51.112;5.878;2022-11-13T09:28:37;24.51;33.87
70300;HTU21D;57704;51.112;5.878;2022-11-13T09:31:21;24.60;33.67
70300;HTU21D;57704;51.112;5.878;2022-11-13T09:34:06;24.72;33.66
70300;HTU21D;57704;51.112;5.878;2022-11-13T09:36:51;24.91;32.75
70300;HTU21D;57704;51.112;5.878;2022-11-13T09:39:36;24.69;31.41
70300;HTU21D;57704;51.112;5.878;2022-11-13T09:42:24;23.82;32.25
70300;HTU21D;57704;51.112;5.878;2022-11-13T09:45:13;22.55;33.96
70300;HTU21D;57704;51.112;5.878;2022-11-13T09:51:05;20.26;37.72
70300;HTU21D;57704;51.112;5.878;2022-11-13T09:53:51;19.33;39.43
70300;HTU21D;57704;51.112;5.878;2022-11-13T09:59:42;18.02;42.70
70300;HTU21D;57704;51.112;5.878;2022-11-13T10:03:08;17.39;43.88
70300;HTU21D;57704;51.112;5.878;2022-11-13T10:06:35;16.81;45.34
70300;HTU21D;57704;51.112;5.878;2022-11-13T10:09:45;16.45;46.38
70300;HTU21D;57704;51.112;5.878;2022-11-13T10:12:33;16.15;47.40
70300;HTU21D;57704;51.112;5.878;2022-11-13T10:15:18;15.89;48.60
70300;HTU21D;57704;51.112;5.878;2022-11-13T10:18:33;15.69;49.47
70300;HTU21D;57704;51.112;5.878;2022-11-13T10:21:38;15.52;50.20
70300;HTU21D;57704;51.112;5.878;2022-11-13T10:24:38;15.37;50.82
70300;HTU21D;57704;51.112;5.878;2022-11-13T10:27:23;15.33;51.14
70300;HTU21D;57704;51.112;5.878;2022-11-13T10:30:16;15.36;51.21
70300;HTU21D;57704;51.112;5.878;2022-11-13T10:33:05;15.39;51.20
70300;HTU21D;57704;51.112;5.878;2022-11-13T10:36:01;15.34;51.43
70300;HTU21D;57704;51.112;5.878;2022-11-13T10:39:04;15.30;51.72
70300;HTU21D;57704;51.112;5.878;2022-11-13T10:41:51;15.23;52.06
70300;HTU21D;57704;51.112;5.878;2022-11-13T10:44:50;15.18;52.41
70300;HTU21D;57704;51.112;5.878;2022-11-13T10:47:49;15.15;52.65
70300;HTU21D;57704;51.112;5.878;2022-11-13T10:50:34;15.18;52.85
70300;HTU21D;57704;51.112;5.878;2022-11-13T10:53:19;15.17;52.85
70300;HTU21D;57704;51.112;5.878;2022-11-13T10:56:33;15.17;52.86
70300;HTU21D;57704;51.112;5.878;2022-11-13T10:59:19;15.17;52.48
70300;HTU21D;57704;51.112;5.878;2022-11-13T11:02:24;15.23;52.22
70300;HTU21D;57704;51.112;5.878;2022-11-13T11:05:16;15.25;52.03
70300;HTU21D;57704;51.112;5.878;2022-11-13T11:08:08;15.30;51.75
70300;HTU21D;57704;51.112;5.878;2022-11-13T11:14:24;15.38;51.79
70300;HTU21D;57704;51.112;5.878;2022-11-13T11:17:11;15.41;51.58
70300;HTU21D;57704;51.112;5.878;2022-11-13T11:20:08;15.43;51.50
70300;HTU21D;57704;51.112;5.878;2022-11-13T11:23:07;15.56;51.37
70300;HTU21D;57704;51.112;5.878;2022-11-13T11:32:30;17.49;50.20
70300;HTU21D;57704;51.112;5.878;2022-11-13T11:35:39;18.37;48.76
70300;HTU21D;57704;51.112;5.878;2022-11-13T11:38:47;19.11;47.34
70300;HTU21D;57704;51.112;5.878;2022-11-13T11:41:48;19.88;46.22
70300;HTU21D;57704;51.112;5.878;2022-11-13T11:48:25;21.00;43.32
70300;HTU21D;57704;51.112;5.878;2022-11-13T11:51:34;21.59;42.14
70300;HTU21D;57704;51.112;5.878;2022-11-13T12:00:41;22.73;38.49
70300;HTU21D;57704;51.112;5.878;2022-11-13T12:10:31;23.37;36.46
70300;HTU21D;57704;51.112;5.878;2022-11-13T12:13:24;23.73;36.40
70300;HTU21D;57704;51.112;5.878;2022-11-13T12:19:05;24.48;34.63
70300;HTU21D;57704;51.112;5.878;2022-11-13T12:22:15;24.68;34.52
70300;HTU21D;57704;51.112;5.878;2022-11-13T12:28:20;24.86;32.69
70300;HTU21D;57704;51.112;5.878;2022-11-13T12:37:50;25.22;31.99
70300;HTU21D;57704;51.112;5.878;2022-11-13T12:40:47;25.31;31.51
70300;HTU21D;57704;51.112;5.878;2022-11-13T12:47:03;25.17;31.06
70300;HTU21D;57704;51.112;5.878;2022-11-13T12:49:58;24.89;30.58
70300;HTU21D;57704;51.112;5.878;2022-11-13T12:52:44;24.60;31.34
70300;HTU21D;57704;51.112;5.878;2022-11-13T12:55:33;24.64;31.42
70300;HTU21D;57704;51.112;5.878;2022-11-13T12:58:29;24.82;31.25
70300;HTU21D;57704;51.112;5.878;2022-11-13T13:01:17;24.62;31.13
70300;HTU21D;57704;51.112;5.878;2022-11-13T13:04:14;24.47;31.40
70300;HTU21D;57704;51.112;5.878;2022-11-13T13:16:23;23.41;33.57
70300;HTU21D;57704;51.112;5.878;2022-11-13T13:19:28;23.35;33.48
70300;HTU21D;57704;51.112;5.878;2022-11-13T13:22:53;23.25;33.56
70300;HTU21D;57704;51.112;5.878;2022-11-13T13:25:34;22.96;33.68
70300;HTU21D;57704;51.112;5.878;2022-11-13T13:28:20;22.64;33.86
70300;HTU21D;57704;51.112;5.878;2022-11-13T13:34:37;22.31;34.71
70300;HTU21D;57704;51.112;5.878;2022-11-13T13:40:14;21.94;34.87
70300;HTU21D;57704;51.112;5.878;2022-11-13T13:46:13;21.49;35.92
70300;HTU21D;57704;51.112;5.878;2022-11-13T13:49:12;21.42;36.20
70300;HTU21D;57704;51.112;5.878;2022-11-13T13:51:57;21.34;36.41
70300;HTU21D;57704;51.112;5.878;2022-11-13T13:54:44;21.21;37.01
70300;HTU21D;57704;51.112;5.878;2022-11-13T13:57:29;21.10;37.31
70300;HTU21D;57704;51.112;5.878;2022-11-13T14:00:17;20.91;37.53
70300;HTU21D;57704;51.112;5.878;2022-11-13T14:03:03;20.59;37.85
70300;HTU21D;57704;51.112;5.878;2022-11-13T14:05:47;20.34;38.57
70300;HTU21D;57704;51.112;5.878;2022-11-13T14:08:32;20.17;38.96
70300;HTU21D;57704;51.112;5.878;2022-11-13T14:11:23;19.94;39.14
70300;HTU21D;57704;51.112;5.878;2022-11-13T14:14:20;19.68;39.72
70300;HTU21D;57704;51.112;5.878;2022-11-13T14:17:08;19.59;40.41
70300;HTU21D;57704;51.112;5.878;2022-11-13T14:19:55;19.51;40.65
70300;HTU21D;57704;51.112;5.878;2022-11-13T14:22:47;19.30;41.26
70300;HTU21D;57704;51.112;5.878;2022-11-13T14:25:32;19.22;41.62
70300;HTU21D;57704;51.112;5.878;2022-11-13T14:28:20;19.09;42.26
70300;HTU21D;57704;51.112;5.878;2022-11-13T14:31:08;18.93;42.67
70300;HTU21D;57704;51.112;5.878;2022-11-13T14:33:53;18.77;43.12
70300;HTU21D;57704;51.112;5.878;2022-11-13T14:36:39;18.63;43.57
70300;HTU21D;57704;51.112;5.878;2022-11-13T14:39:31;18.47;43.94
70300;HTU21D;57704;51.112;5.878;2022-11-13T14:42:37;18.28;44.46
70300;HTU21D;57704;51.112;5.878;2022-11-13T14:45:29;18.18;44.78
70300;HTU21D;57704;51.112;5.878;2022-11-13T14:48:23;18.05;45.34
70300;HTU21D;57704;51.112;5.878;2022-11-13T14:51:32;17.94;45.66
70300;HTU21D;57704;51.112;5.878;2022-11-13T14:54:35;17.83;46.01
70300;HTU21D;57704;51.112;5.878;2022-11-13T14:57:19;17.74;46.47
70300;HTU21D;57704;51.112;5.878;2022-11-13T15:00:39;17.65;46.70
70300;HTU21D;57704;51.112;5.878;2022-11-13T15:03:25;17.54;47.01
70300;HTU21D;57704;51.112;5.878;2022-11-13T15:06:13;17.43;47.13
70300;HTU21D;57704;51.112;5.878;2022-11-13T15:08:59;17.34;47.34
70300;HTU21D;57704;51.112;5.878;2022-11-13T15:11:44;17.20;47.50
70300;HTU21D;57704;51.112;5.878;2022-11-13T15:14:29;17.09;47.89
70300;HTU21D;57704;51.112;5.878;2022-11-13T15:17:17;16.99;48.09
70300;HTU21D;57704;51.112;5.878;2022-11-13T15:20:02;16.90;48.44
70300;HTU21D;57704;51.112;5.878;2022-11-13T15:22:50;16.79;48.79
70300;HTU21D;57704;51.112;5.878;2022-11-13T15:25:35;16.71;49.08
70300;HTU21D;57704;51.112;5.878;2022-11-13T15:28:19;16.62;49.31
70300;HTU21D;57704;51.112;5.878;2022-11-13T15:31:25;16.49;49.57
70300;HTU21D;57704;51.112;5.878;2022-11-13T15:34:15;16.39;49.88
70300;HTU21D;57704;51.112;5.878;2022-11-13T15:37:00;16.29;50.19
70300;HTU21D;57704;51.112;5.878;2022-11-13T15:39:44;16.16;50.45
70300;HTU21D;57704;51.112;5.878;2022-11-13T15:42:32;16.03;50.66
70300;HTU21D;57704;51.112;5.878;2022-11-13T15:45:17;15.90;50.95
70300;HTU21D;57704;51.112;5.878;2022-11-13T15:48:02;15.77;51.21
70300;HTU21D;57704;51.112;5.878;2022-11-13T15:50:47;15.61;51.48
70300;HTU21D;57704;51.112;5.878;2022-11-13T15:53:32;15.47;51.79
70300;HTU21D;57704;51.112;5.878;2022-11-13T15:56:17;15.36;52.04
70300;HTU21D;57704;51.112;5.878;2022-11-13T15:59:02;15.24;52.33
70300;HTU21D;57704;51.112;5.878;2022-11-13T16:01:46;15.07;52.59
70300;HTU21D;57704;51.112;5.878;2022-11-13T16:04:31;14.89;52.85
70300;HTU21D;57704;51.112;5.878;2022-11-13T16:07:18;14.73;52.98
70300;HTU21D;57704;51.112;5.878;2022-11-13T16:10:05;14.64;53.18
70300;HTU21D;57704;51.112;5.878;2022-11-13T16:12:49;14.51;53.25
70300;HTU21D;57704;51.112;5.878;2022-11-13T16:15:34;14.40;53.46
70300;HTU21D;57704;51.112;5.878;2022-11-13T16:18:26;14.34;53.71
70300;HTU21D;57704;51.112;5.878;2022-11-13T16:21:12;14.26;53.85
70300;HTU21D;57704;51.112;5.878;2022-11-13T16:23:57;14.13;54.06
70300;HTU21D;57704;51.112;5.878;2022-11-13T16:26:53;14.01;54.22
70300;HTU21D;57704;51.112;5.878;2022-11-13T16:29:38;13.90;54.48
70300;HTU21D;57704;51.112;5.878;2022-11-13T16:32:23;13.80;54.69
70300;HTU21D;57704;51.112;5.878;2022-11-13T16:35:17;13.67;54.92
70300;HTU21D;57704;51.112;5.878;2022-11-13T16:38:02;13.55;55.04
70300;HTU21D;57704;51.112;5.878;2022-11-13T16:40:47;13.45;55.15
70300;HTU21D;57704;51.112;5.878;2022-11-13T16:43:31;13.31;55.21
70300;HTU21D;57704;51.112;5.878;2022-11-13T16:46:29;13.23;55.14
70300;HTU21D;57704;51.112;5.878;2022-11-13T16:49:16;13.09;55.06
70300;HTU21D;57704;51.112;5.878;2022-11-13T16:52:02;13.00;54.99
70300;HTU21D;57704;51.112;5.878;2022-11-13T16:54:47;12.93;54.80
70300;HTU21D;57704;51.112;5.878;2022-11-13T16:57:32;12.89;54.81
70300;HTU21D;57704;51.112;5.878;2022-11-13T17:00:18;12.80;54.76
70300;HTU21D;57704;51.112;5.878;2022-11-13T17:03:03;12.76;54.76
70300;HTU21D;57704;51.112;5.878;2022-11-13T17:05:51;12.72;54.62
70300;HTU21D;57704;51.112;5.878;2022-11-13T17:08:36;12.66;54.59
70300;HTU21D;57704;51.112;5.878;2022-11-13T17:11:22;12.63;54.43
70300;HTU21D;57704;51.112;5.878;2022-11-13T17:14:09;12.58;54.42
70300;HTU21D;57704;51.112;5.878;2022-11-13T17:16:54;12.57;54.39
70300;HTU21D;57704;51.112;5.878;2022-11-13T17:19:40;12.56;54.38
70300;HTU21D;57704;51.112;5.878;2022-11-13T17:22:27;12.52;54.49
70300;HTU21D;57704;51.112;5.878;2022-11-13T17:25:12;12.51;54.73
70300;HTU21D;57704;51.112;5.878;2022-11-13T17:27:57;12.47;54.88
70300;HTU21D;57704;51.112;5.878;2022-11-13T17:30:41;12.43;55.13
70300;HTU21D;57704;51.112;5.878;2022-11-13T17:33:26;12.37;55.36
70300;HTU21D;57704;51.112;5.878;2022-11-13T17:36:11;12.32;55.52
70300;HTU21D;57704;51.112;5.878;2022-11-13T17:38:55;12.26;55.73
70300;HTU21D;57704;51.112;5.878;2022-11-13T17:41:40;12.20;55.89
70300;HTU21D;57704;51.112;5.878;2022-11-13T17:44:25;12.13;56.10
70300;HTU21D;57704;51.112;5.878;2022-11-13T17:47:09;12.08;56.25
70300;HTU21D;57704;51.112;5.878;2022-11-13T17:49:53;12.04;56.40
70300;HTU21D;57704;51.112;5.878;2022-11-13T17:52:39;12.00;56.49
70300;HTU21D;57704;51.112;5.878;2022-11-13T17:55:24;11.94;56.58
70300;HTU21D;57704;51.112;5.878;2022-11-13T17:58:09;11.90;56.71
70300;HTU21D;57704;51.112;5.878;2022-11-13T18:01:05;11.82;56.93
70300;HTU21D;57704;51.112;5.878;2022-11-13T18:03:54;11.75;57.03
70300;HTU21D;57704;51.112;5.878;2022-11-13T18:06:42;11.71;57.16
70300;HTU21D;57704;51.112;5.878;2022-11-13T18:09:27;11.66;57.30
70300;HTU21D;57704;51.112;5.878;2022-11-13T18:12:11;11.57;57.47
70300;HTU21D;57704;51.112;5.878;2022-11-13T18:14:56;11.53;57.67
70300;HTU21D;57704;51.112;5.878;2022-11-13T18:17:40;11.47;57.79
70300;HTU21D;57704;51.112;5.878;2022-11-13T18:20:24;11.40;57.84
70300;HTU21D;57704;51.112;5.878;2022-11-13T18:23:08;11.32;58.03
70300;HTU21D;57704;51.112;5.878;2022-11-13T18:25:53;11.29;58.22
70300;HTU21D;57704;51.112;5.878;2022-11-13T18:28:39;11.26;58.23
70300;HTU21D;57704;51.112;5.878;2022-11-13T18:31:24;11.25;58.18
70300;HTU21D;57704;51.112;5.878;2022-11-13T18:34:12;11.22;58.22
70300;HTU21D;57704;51.112;5.878;2022-11-13T18:37:00;11.18;58.28
70300;HTU21D;57704;51.112;5.878;2022-11-13T18:39:44;11.12;58.46